createdAt,value
2018-09-23T00:02:18.939Z,1.52
2018-09-23T00:04:47.482Z,1.87
2018-09-23T00:07:16.031Z,1.37
2018-09-23T00:09:44.555Z,1.32
2018-09-23T00:12:14.007Z,1.65
2018-09-23T00:14:42.527Z,1.92
2018-09-23T00:17:11.047Z,1.42
2018-09-23T00:19:39.563Z,1.22
2018-09-23T00:22:08.128Z,1.35
2018-09-23T00:24:36.674Z,1.00
2018-09-23T00:27:05.239Z,1.05
2018-09-23T00:29:39.063Z,1.55
2018-09-23T00:32:07.617Z,1.37
2018-09-23T00:34:36.142Z,2.33
2018-09-23T00:37:04.663Z,1.32
2018-09-23T00:39:33.228Z,1.40
2018-09-23T00:42:01.795Z,1.10
2018-09-23T00:44:30.335Z,1.35
2018-09-23T00:46:58.867Z,1.20
2018-09-23T00:49:27.391Z,1.00
2018-09-23T00:51:56.055Z,1.25
2018-09-23T00:54:24.952Z,1.05
2018-09-23T00:56:53.483Z,1.00
2018-09-23T00:59:22.014Z,1.20
2018-09-23T01:01:50.619Z,1.20
2018-09-23T01:04:19.151Z,1.40
2018-09-23T01:06:47.710Z,1.30
2018-09-23T01:09:16.243Z,1.82
2018-09-23T01:11:44.957Z,1.62
2018-09-23T01:14:13.797Z,1.20
2018-09-23T01:16:42.326Z,1.35
2018-09-23T01:19:10.875Z,1.20
2018-09-23T01:21:39.424Z,1.40
2018-09-23T01:24:08.004Z,0.80
2018-09-23T01:26:36.555Z,1.30
2018-09-23T01:29:05.171Z,1.20
2018-09-23T01:31:33.709Z,1.60
2018-09-23T01:34:02.260Z,1.35
2018-09-23T01:36:30.840Z,1.40
2018-09-23T01:38:59.358Z,1.10
2018-09-23T01:41:28.216Z,0.90
2018-09-23T01:43:56.750Z,1.35
2018-09-23T01:46:25.271Z,1.42
2018-09-23T01:48:53.803Z,1.00
2018-09-23T01:51:22.346Z,1.22
2018-09-23T01:53:50.877Z,1.42
2018-09-23T01:56:19.411Z,1.02
2018-09-23T01:58:48.127Z,1.05
2018-09-23T02:01:16.685Z,0.93
2018-09-23T02:03:45.222Z,1.60
2018-09-23T02:06:13.983Z,1.45
2018-09-23T02:08:42.503Z,1.47
2018-09-23T02:11:11.110Z,2.75
2018-09-23T02:13:39.638Z,1.20
2018-09-23T02:16:08.354Z,1.47
2018-09-23T02:18:36.891Z,1.60
2018-09-23T02:21:05.503Z,1.80
2018-09-23T02:23:34.036Z,1.37
2018-09-23T02:26:02.567Z,1.35
2018-09-23T02:28:31.270Z,1.37
2018-09-23T02:30:59.789Z,1.45
2018-09-23T02:33:28.353Z,1.47
2018-09-23T02:35:56.905Z,1.50
2018-09-23T02:38:25.433Z,1.35
2018-09-23T02:40:54.059Z,1.35
2018-09-23T02:43:22.604Z,1.02
2018-09-23T02:45:51.172Z,2.15
2018-09-23T02:48:19.803Z,1.52
2018-09-23T02:50:48.370Z,1.10
2018-09-23T02:53:17.379Z,1.45
2018-09-23T02:55:45.923Z,1.40
2018-09-23T02:58:14.459Z,1.07
2018-09-23T03:00:43.017Z,1.30
2018-09-23T03:03:11.545Z,1.00
2018-09-23T03:05:40.115Z,1.25
2018-09-23T03:08:08.780Z,2.35
2018-09-23T03:10:37.439Z,1.50
2018-09-23T03:13:06.055Z,1.40
2018-09-23T03:15:34.630Z,1.12
2018-09-23T03:18:03.181Z,1.75
2018-09-23T03:20:31.727Z,1.77
2018-09-23T03:23:00.304Z,1.20
2018-09-23T03:25:28.842Z,1.52
2018-09-23T03:27:57.399Z,1.40
2018-09-23T03:30:25.927Z,1.45
2018-09-23T03:32:54.514Z,1.10
2018-09-23T03:35:23.051Z,1.27
2018-09-23T03:37:51.943Z,1.47
2018-09-23T03:40:20.499Z,1.80
2018-09-23T03:42:49.097Z,1.10
2018-09-23T03:45:17.931Z,1.20
2018-09-23T03:47:46.623Z,1.42
2018-09-23T03:50:15.167Z,1.77
2018-09-23T03:52:43.806Z,2.12
2018-09-23T03:55:12.395Z,1.30
2018-09-23T03:57:40.930Z,1.27
2018-09-23T04:00:09.716Z,1.80
2018-09-23T04:02:38.580Z,1.57
2018-09-23T04:05:07.143Z,1.05
2018-09-23T04:07:35.672Z,1.00
2018-09-23T04:10:04.271Z,1.35
2018-09-23T04:12:32.842Z,1.70
2018-09-23T04:15:01.406Z,1.02
2018-09-23T04:17:29.943Z,1.80
2018-09-23T04:19:58.531Z,1.15
2018-09-23T04:22:27.094Z,1.40
2018-09-23T04:24:55.625Z,1.80
2018-09-23T04:27:24.159Z,1.10
2018-09-23T04:29:52.926Z,1.10
2018-09-23T04:32:21.547Z,1.45
2018-09-23T04:34:50.085Z,1.30
2018-09-23T04:37:18.899Z,1.80
2018-09-23T04:39:47.420Z,1.50
2018-09-23T04:42:15.959Z,1.25
2018-09-23T04:44:44.493Z,1.00
2018-09-23T04:47:13.027Z,0.88
2018-09-23T04:49:41.574Z,1.90
2018-09-23T04:52:10.122Z,1.62
2018-09-23T04:54:39.044Z,1.10
2018-09-23T04:57:07.571Z,1.22
2018-09-23T04:59:36.102Z,1.75
2018-09-23T05:02:04.638Z,0.98
2018-09-23T05:04:33.166Z,1.17
2018-09-23T05:07:02.106Z,1.45
2018-09-23T05:09:30.654Z,1.10
2018-09-23T05:11:59.179Z,1.20
2018-09-23T05:14:27.866Z,1.60
2018-09-23T05:16:56.455Z,0.80
2018-09-23T05:19:25.027Z,1.60
2018-09-23T05:21:53.650Z,0.90
2018-09-23T05:24:22.199Z,1.10
2018-09-23T05:26:50.756Z,1.77
2018-09-23T05:29:19.295Z,1.10
2018-09-23T05:31:47.833Z,1.35
2018-09-23T05:34:16.386Z,1.00
2018-09-23T05:36:45.316Z,1.10
2018-09-23T05:39:13.848Z,1.15
2018-09-23T05:41:42.393Z,1.87
2018-09-23T05:44:10.948Z,1.25
2018-09-23T05:46:39.938Z,0.90
2018-09-23T05:49:09.080Z,1.40
2018-09-23T05:51:37.619Z,1.37
2018-09-23T05:54:06.169Z,0.88
2018-09-23T05:56:35.064Z,1.00
2018-09-23T05:59:03.737Z,0.98
2018-09-23T06:01:32.264Z,1.02
2018-09-23T06:04:00.811Z,1.27
2018-09-23T06:06:29.343Z,1.47
2018-09-23T06:08:58.476Z,1.15
2018-09-23T06:11:27.075Z,1.00
2018-09-23T06:13:55.607Z,1.02
2018-09-23T06:16:24.147Z,1.15
2018-09-23T06:18:52.811Z,1.20
2018-09-23T06:21:21.467Z,1.10
2018-09-23T06:23:50.248Z,1.57
2018-09-23T06:26:19.002Z,0.72
2018-09-23T06:28:47.531Z,1.10
2018-09-23T06:31:16.152Z,0.90
2018-09-23T06:33:44.679Z,1.00
2018-09-23T06:36:13.201Z,1.05
2018-09-23T06:38:42.057Z,0.90
2018-09-23T06:41:10.575Z,0.70
2018-09-23T06:43:39.103Z,1.02
2018-09-23T06:46:08.119Z,1.55
2018-09-23T06:48:36.678Z,1.10
2018-09-23T06:51:05.858Z,1.07
2018-09-23T06:53:34.850Z,1.00
2018-09-23T06:56:03.564Z,1.00
2018-09-23T06:58:32.097Z,1.07
2018-09-23T07:01:00.661Z,1.20
2018-09-23T07:03:29.223Z,0.90
2018-09-23T07:05:57.822Z,1.10
2018-09-23T07:08:26.514Z,0.95
2018-09-23T07:10:55.049Z,1.00
2018-09-23T07:13:23.596Z,1.15
2018-09-23T07:15:52.361Z,0.80
2018-09-23T07:18:20.900Z,0.90
2018-09-23T07:20:49.481Z,0.80
2018-09-23T07:23:18.031Z,0.70
2018-09-23T07:25:46.554Z,0.70
2018-09-23T07:28:15.101Z,0.80
2018-09-23T07:30:43.730Z,1.12
2018-09-23T07:33:12.739Z,0.95
2018-09-23T07:35:41.286Z,0.70
2018-09-23T07:38:09.821Z,1.27
2018-09-23T07:40:38.362Z,1.05
2018-09-23T07:43:06.953Z,0.90
2018-09-23T07:45:35.811Z,2.30
2018-09-23T07:48:04.126Z,0.72
2018-09-23T07:50:32.292Z,0.70
2018-09-23T07:53:00.910Z,0.82
2018-09-23T07:55:29.154Z,1.00
2018-09-23T07:57:57.362Z,1.00
2018-09-23T08:00:25.603Z,0.70
2018-09-23T08:02:54.086Z,1.12
2018-09-23T08:05:22.478Z,0.75
2018-09-23T08:07:50.754Z,1.00
2018-09-23T08:10:18.966Z,0.95
2018-09-23T08:12:47.518Z,0.68
2018-09-23T08:15:15.947Z,1.20
2018-09-23T08:17:44.338Z,0.78
2018-09-23T08:20:12.661Z,0.75
2018-09-23T08:22:41.250Z,0.95
2018-09-23T08:25:09.644Z,0.75
2018-09-23T08:27:37.890Z,1.00
2018-09-23T08:30:06.687Z,0.70
2018-09-23T08:32:35.038Z,0.60
2018-09-23T08:35:03.258Z,0.60
2018-09-23T08:37:31.539Z,0.50
2018-09-23T08:39:59.753Z,1.65
2018-09-23T08:42:28.227Z,0.70
2018-09-23T08:44:56.470Z,0.60
2018-09-23T08:47:24.679Z,0.80
2018-09-23T08:49:52.970Z,1.22
2018-09-23T08:52:21.310Z,0.70
2018-09-23T08:54:49.866Z,0.60
2018-09-23T08:57:18.163Z,0.80
2018-09-23T08:59:46.486Z,0.60
2018-09-23T09:02:14.678Z,0.55
2018-09-23T09:04:42.882Z,0.70
2018-09-23T09:07:11.084Z,0.65
2018-09-23T09:09:39.322Z,0.70
2018-09-23T09:12:07.834Z,0.80
2018-09-23T09:14:36.143Z,0.80
2018-09-23T09:17:04.356Z,0.60
2018-09-23T09:19:32.726Z,0.95
2018-09-23T09:22:01.039Z,0.88
2018-09-23T09:24:29.262Z,0.50
2018-09-23T09:26:57.503Z,0.50
2018-09-23T09:29:25.807Z,0.72
2018-09-23T09:31:54.210Z,0.60
2018-09-23T09:34:22.411Z,0.50
2018-09-23T09:36:50.619Z,0.50
2018-09-23T09:39:18.810Z,0.60
2018-09-23T09:41:47.181Z,0.55
2018-09-23T09:44:15.462Z,0.62
2018-09-23T09:46:44.670Z,0.50
2018-09-23T09:49:12.945Z,0.70
2018-09-23T09:51:41.183Z,0.50
2018-09-23T09:54:09.391Z,0.70
2018-09-23T09:56:37.599Z,0.50
2018-09-23T09:59:05.835Z,0.50
2018-09-23T10:01:34.354Z,0.60
2018-09-23T10:04:02.570Z,0.80
2018-09-23T10:06:30.781Z,0.60
2018-09-23T10:08:59.019Z,0.47
2018-09-23T10:11:27.337Z,0.57
2018-09-23T10:13:55.522Z,0.50
2018-09-23T10:16:24.021Z,0.40
2018-09-23T10:18:52.355Z,0.50
2018-09-23T10:21:20.728Z,0.45
2018-09-23T10:23:48.978Z,0.60
2018-09-23T10:26:17.188Z,0.50
2018-09-23T10:28:45.615Z,1.42
2018-09-23T10:31:13.880Z,0.50
2018-09-23T10:33:42.331Z,0.65
2018-09-23T10:36:10.580Z,0.60
2018-09-23T10:38:38.854Z,0.70
2018-09-23T10:41:07.060Z,0.75
2018-09-23T10:43:35.438Z,0.70
2018-09-23T10:46:03.830Z,0.60
2018-09-23T10:48:32.077Z,0.80
2018-09-23T10:51:00.312Z,0.78
2018-09-23T10:53:28.533Z,0.78
2018-09-23T10:55:56.745Z,0.60
2018-09-23T10:58:25.329Z,0.60
2018-09-23T11:00:53.542Z,1.22
2018-09-23T11:03:21.747Z,0.60
2018-09-23T11:05:50.112Z,0.60
2018-09-23T11:08:18.339Z,0.50
2018-09-23T11:10:46.551Z,0.72
2018-09-23T11:13:14.799Z,0.90
2018-09-23T11:15:43.251Z,0.50
2018-09-23T11:18:11.598Z,0.68
2018-09-23T11:20:39.810Z,0.70
2018-09-23T11:23:08.468Z,0.53
2018-09-23T11:25:36.684Z,0.65
2018-09-23T11:28:05.023Z,0.60
2018-09-23T11:30:33.246Z,0.50
2018-09-23T11:33:01.447Z,0.55
2018-09-23T11:35:29.642Z,0.60
2018-09-23T11:37:57.842Z,0.53
2018-09-23T11:40:26.122Z,0.50
2018-09-23T11:42:54.386Z,0.55
2018-09-23T11:45:22.582Z,0.50
2018-09-23T11:47:50.778Z,0.60
2018-09-23T11:50:18.989Z,0.57
2018-09-23T11:52:47.226Z,0.53
2018-09-23T11:55:15.419Z,0.50
2018-09-23T11:57:43.603Z,0.60
2018-09-23T12:00:11.818Z,0.50
2018-09-23T12:02:40.282Z,0.50
2018-09-23T12:05:08.517Z,0.60
2018-09-23T12:07:36.718Z,0.60
2018-09-23T12:10:04.934Z,0.50
2018-09-23T12:12:33.175Z,0.50
2018-09-23T12:15:01.363Z,0.60
2018-09-23T12:17:29.690Z,0.60
2018-09-23T12:19:57.888Z,0.53
2018-09-23T12:22:26.111Z,0.60
2018-09-23T12:24:54.472Z,0.50
2018-09-23T12:27:22.666Z,0.50
2018-09-23T12:29:51.138Z,0.50
2018-09-23T12:32:19.372Z,0.50
2018-09-23T12:34:47.590Z,0.60
2018-09-23T12:37:15.783Z,0.50
2018-09-23T12:39:44.015Z,0.60
2018-09-23T12:42:12.216Z,0.60
2018-09-23T12:44:40.415Z,0.50
2018-09-23T12:47:08.703Z,0.50
2018-09-23T12:49:36.898Z,0.78
2018-09-23T12:52:05.114Z,0.53
2018-09-23T12:54:33.394Z,1.02
2018-09-23T12:57:01.597Z,0.60
2018-09-23T12:59:29.947Z,0.80
2018-09-23T13:01:58.154Z,0.50
2018-09-23T13:04:26.794Z,0.72
2018-09-23T13:06:54.994Z,0.68
2018-09-23T13:09:23.210Z,0.70
2018-09-23T13:11:51.528Z,0.70
2018-09-23T13:14:19.722Z,0.72
2018-09-23T13:16:47.926Z,0.72
2018-09-23T13:19:16.174Z,0.72
2018-09-23T13:21:44.571Z,0.50
2018-09-23T13:24:12.803Z,0.70
2018-09-23T13:26:41.025Z,0.70
2018-09-23T13:29:09.226Z,0.60
2018-09-23T13:31:37.630Z,0.80
2018-09-23T13:34:05.980Z,0.47
2018-09-23T13:36:34.204Z,0.65
2018-09-23T13:39:02.474Z,0.45
2018-09-23T13:41:30.671Z,0.50
2018-09-23T13:43:59.131Z,0.60
2018-09-23T13:46:27.365Z,0.47
2018-09-23T13:48:55.979Z,0.78
2018-09-23T13:51:24.193Z,0.50
2018-09-23T13:53:52.394Z,0.50
2018-09-23T13:56:20.678Z,0.57
2018-09-23T13:58:48.918Z,0.40
2018-09-23T14:01:17.247Z,0.40
2018-09-23T14:03:45.438Z,0.50
2018-09-23T14:06:14.214Z,0.50
2018-09-23T14:08:42.499Z,0.50
2018-09-23T14:11:10.850Z,0.50
2018-09-23T14:13:39.066Z,0.40
2018-09-23T14:16:07.519Z,0.40
2018-09-23T14:18:35.711Z,0.55
2018-09-23T14:21:03.994Z,0.50
2018-09-23T14:23:32.316Z,0.50
2018-09-23T14:26:00.514Z,0.40
2018-09-23T14:28:28.739Z,0.40
2018-09-23T14:30:56.967Z,0.40
2018-09-23T14:33:25.430Z,0.40
2018-09-23T14:35:53.710Z,0.50
2018-09-23T14:38:21.915Z,0.50
2018-09-23T14:40:50.154Z,0.40
2018-09-23T14:43:18.376Z,0.42
2018-09-23T14:45:46.619Z,0.40
2018-09-23T14:48:14.882Z,0.50
2018-09-23T14:50:43.088Z,0.40
2018-09-23T14:53:11.295Z,0.40
2018-09-23T14:55:39.546Z,0.40
2018-09-23T14:58:08.041Z,0.50
2018-09-23T15:00:36.304Z,0.40
2018-09-23T15:03:04.542Z,0.40
2018-09-23T15:05:32.812Z,0.40
2018-09-23T15:08:01.096Z,0.40
2018-09-23T15:10:29.310Z,0.50
2018-09-23T15:12:57.515Z,0.50
2018-09-23T15:15:25.723Z,0.40
2018-09-23T15:17:53.954Z,0.40
2018-09-23T15:20:22.146Z,0.50
2018-09-23T15:22:50.678Z,0.40
2018-09-23T15:25:18.893Z,0.50
2018-09-23T15:27:47.099Z,0.50
2018-09-23T15:30:15.302Z,0.45
2018-09-23T15:32:43.515Z,0.42
2018-09-23T15:35:11.721Z,0.50
2018-09-23T15:37:39.962Z,0.75
2018-09-23T15:40:08.554Z,1.47
2018-09-23T15:42:36.754Z,0.60
2018-09-23T15:45:05.242Z,0.68
2018-09-23T15:47:33.435Z,0.50
2018-09-23T15:50:01.640Z,0.50
2018-09-23T15:52:29.907Z,0.50
2018-09-23T15:54:58.101Z,0.80
2018-09-23T15:57:26.677Z,0.60
2018-09-23T15:59:54.918Z,0.70
2018-09-23T16:02:23.210Z,0.50
2018-09-23T16:04:51.512Z,0.80
2018-09-23T16:07:19.702Z,0.60
2018-09-23T16:09:47.902Z,0.68
2018-09-23T16:12:16.102Z,1.07
2018-09-23T16:14:44.366Z,0.65
2018-09-23T16:17:12.562Z,0.70
2018-09-23T16:19:40.762Z,0.68
2018-09-23T16:22:09.041Z,0.70
2018-09-23T16:31:22.412Z,0.90
2018-09-23T16:33:50.606Z,0.70
2018-09-23T16:36:18.798Z,0.60
2018-09-23T16:38:47.275Z,0.60
2018-09-23T16:41:15.475Z,0.60
2018-09-23T16:43:43.666Z,0.62
2018-09-23T16:46:11.862Z,0.70
2018-09-23T16:48:40.058Z,0.90
2018-09-23T16:51:08.258Z,0.90
2018-09-23T16:53:36.547Z,1.00
2018-09-23T16:56:04.766Z,0.85
2018-09-23T16:58:33.314Z,0.85
2018-09-23T17:01:01.594Z,0.93
2018-09-23T17:03:30.146Z,0.55
2018-09-23T17:05:58.419Z,0.70
2018-09-23T17:08:26.830Z,0.70
2018-09-23T17:10:55.070Z,0.80
2018-09-23T17:13:23.470Z,0.62
2018-09-23T17:15:52.275Z,0.80
2018-09-23T17:18:20.491Z,1.10
2018-09-23T17:20:48.700Z,0.80
2018-09-23T17:23:16.966Z,0.80
2018-09-23T17:25:45.258Z,0.70
2018-09-23T17:28:13.590Z,0.82
2018-09-23T17:30:41.795Z,0.90
2018-09-23T17:33:10.210Z,0.70
2018-09-23T17:35:38.417Z,0.90
2018-09-23T17:38:06.702Z,0.98
2018-09-23T17:40:34.902Z,0.90
2018-09-23T17:43:03.106Z,0.70
2018-09-23T17:45:31.555Z,0.70
2018-09-23T17:47:59.811Z,1.02
2018-09-23T17:50:28.094Z,0.70
2018-09-23T17:52:56.290Z,1.00
2018-09-23T17:55:24.596Z,0.90
2018-09-23T17:57:52.786Z,1.15
2018-09-23T18:00:21.042Z,1.40
2018-09-23T18:02:49.350Z,1.17
2018-09-23T18:05:17.672Z,1.00
2018-09-23T18:07:45.976Z,0.90
2018-09-23T18:10:14.224Z,1.02
2018-09-23T18:12:42.542Z,0.60
2018-09-23T18:15:10.793Z,0.50
2018-09-23T18:17:38.984Z,0.80
2018-09-23T18:20:07.219Z,0.85
2018-09-23T18:22:35.539Z,0.70
2018-09-23T18:25:04.017Z,1.55
2018-09-23T18:27:32.359Z,0.78
2018-09-23T18:30:00.685Z,0.60
2018-09-23T18:32:28.974Z,0.90
2018-09-23T18:34:57.478Z,0.90
2018-09-23T18:37:25.813Z,1.05
2018-09-23T18:39:53.948Z,0.80
2018-09-23T18:42:22.143Z,0.80
2018-09-23T18:44:50.347Z,0.85
2018-09-23T18:47:18.646Z,0.90
2018-09-23T18:49:47.036Z,0.80
2018-09-23T18:52:15.202Z,0.70
2018-09-23T18:54:48.720Z,0.70
2018-09-23T18:57:16.935Z,0.75
2018-09-23T18:59:45.347Z,0.60
2018-09-23T19:02:13.762Z,0.60
2018-09-23T19:04:41.995Z,0.60
2018-09-23T19:07:10.190Z,0.70
2018-09-23T19:09:38.388Z,0.60
2018-09-23T19:12:07.066Z,0.70
2018-09-23T19:14:35.277Z,0.60
2018-09-23T19:17:03.590Z,0.55
2018-09-23T19:19:37.182Z,0.60
2018-09-23T19:22:09.698Z,0.50
2018-09-23T19:24:38.071Z,0.70
2018-09-23T19:27:06.294Z,0.70
2018-09-23T19:29:34.491Z,0.78
2018-09-23T19:32:02.694Z,0.70
2018-09-23T19:34:30.927Z,0.72
2018-09-23T19:36:59.250Z,0.60
2018-09-23T19:39:27.467Z,0.60
2018-09-23T19:41:55.830Z,0.70
2018-09-23T19:44:24.078Z,0.75
2018-09-23T19:46:52.354Z,0.65
2018-09-23T19:49:20.561Z,0.70
2018-09-23T19:51:48.854Z,0.70
2018-09-23T19:54:17.054Z,0.80
2018-09-23T19:56:45.254Z,1.02
2018-09-23T19:59:13.497Z,0.78
2018-09-23T20:01:41.682Z,1.07
2018-09-23T20:04:10.126Z,0.70
2018-09-23T20:06:38.385Z,1.00
2018-09-23T20:09:07.988Z,0.60
2018-09-23T20:11:36.347Z,0.70
2018-09-23T20:14:04.530Z,0.65
2018-09-23T20:16:32.867Z,0.78
2018-09-23T20:19:01.104Z,0.65
2018-09-23T20:21:29.313Z,0.60
2018-09-23T20:23:57.739Z,0.80
2018-09-23T20:26:26.008Z,0.70
2018-09-23T20:28:54.291Z,0.70
2018-09-23T20:31:22.596Z,0.53
2018-09-23T20:33:51.038Z,0.75
2018-09-23T20:36:19.254Z,0.70
2018-09-23T20:38:47.502Z,0.82
2018-09-23T20:41:15.874Z,0.85
2018-09-23T20:43:44.377Z,1.00
2018-09-23T20:46:12.589Z,0.80
2018-09-23T20:48:41.090Z,0.80
2018-09-23T20:51:09.312Z,0.80
2018-09-23T20:53:37.812Z,0.98
2018-09-23T20:56:06.023Z,1.17
2018-09-23T20:58:34.271Z,1.52
2018-09-23T21:01:02.490Z,0.80
2018-09-23T21:03:30.790Z,1.00
2018-09-23T21:05:59.042Z,0.60
2018-09-23T21:08:27.260Z,0.70
2018-09-23T21:10:55.726Z,0.78
2018-09-23T21:13:23.927Z,0.70
2018-09-23T21:15:52.163Z,0.70
2018-09-23T21:18:20.423Z,0.80
2018-09-23T21:20:48.706Z,0.82
2018-09-23T21:23:16.979Z,1.00
2018-09-23T21:25:45.251Z,0.90
2018-09-23T21:28:14.071Z,0.90
2018-09-23T21:30:42.646Z,0.80
2018-09-23T21:33:11.105Z,0.90
2018-09-23T21:35:39.396Z,0.78
2018-09-23T21:38:07.676Z,1.07
2018-09-23T21:40:35.976Z,0.90
2018-09-23T21:43:04.284Z,0.70
2018-09-23T21:45:32.542Z,0.60
2018-09-23T21:48:00.809Z,0.80
2018-09-23T21:50:29.137Z,0.70
2018-09-23T21:52:57.878Z,0.82
2018-09-23T21:55:26.336Z,0.88
2018-09-23T21:57:54.605Z,0.90
2018-09-23T22:00:25.758Z,0.80
2018-09-23T22:02:53.969Z,0.95
2018-09-23T22:05:50.857Z,1.27
2018-09-23T22:08:19.074Z,1.50
2018-09-23T22:10:47.534Z,1.50
2018-09-23T22:13:23.545Z,1.12
2018-09-23T22:15:54.679Z,1.15
2018-09-23T22:18:42.126Z,1.20
2018-09-23T22:21:29.533Z,0.88
2018-09-23T22:24:07.510Z,0.85
2018-09-23T22:26:37.090Z,1.10
2018-09-23T22:29:05.326Z,1.10
2018-09-23T22:31:33.960Z,0.95
2018-09-23T22:34:02.167Z,1.00
2018-09-23T22:36:30.591Z,1.10
2018-09-23T22:38:58.823Z,0.80
2018-09-23T22:41:27.018Z,0.90
2018-09-23T22:43:55.543Z,1.30
2018-09-23T22:46:23.754Z,1.05
2018-09-23T22:48:52.010Z,1.10
2018-09-23T22:51:20.651Z,1.17
2018-09-23T22:53:48.926Z,0.80
2018-09-23T22:56:17.350Z,1.10
2018-09-23T22:58:45.750Z,0.90
2018-09-23T23:01:13.966Z,1.00
2018-09-23T23:03:42.486Z,0.98
2018-09-23T23:06:10.689Z,0.82
2018-09-23T23:08:38.940Z,0.95
2018-09-23T23:11:07.138Z,1.00
2018-09-23T23:13:35.354Z,1.10
2018-09-23T23:16:03.615Z,0.90
2018-09-23T23:18:31.815Z,0.80
2018-09-23T23:21:00.025Z,0.80
2018-09-23T23:23:28.226Z,0.80
2018-09-23T23:25:56.514Z,0.90
2018-09-23T23:28:24.707Z,0.80
2018-09-23T23:30:53.092Z,0.72
2018-09-23T23:33:21.482Z,0.75
2018-09-23T23:35:49.683Z,0.70
2018-09-23T23:38:18.310Z,0.80
2018-09-23T23:40:46.589Z,0.65
2018-09-23T23:43:14.778Z,0.70
2018-09-23T23:45:43.270Z,0.72
2018-09-23T23:48:11.478Z,0.90
2018-09-23T23:50:39.726Z,0.90
2018-09-23T23:53:07.931Z,0.70
2018-09-23T23:55:36.123Z,0.88
2018-09-23T23:58:04.356Z,0.85
